sensor_id;sensor_type;location;lat;lon;timestamp;temperature;humidity
20242;DHT22;10279;46.388;8.116;2024-01-06T00:00:23;1.70;99.90
20242;DHT22;10279;46.388;8.116;2024-01-06T00:02:50;1.70;99.90
20242;DHT22;10279;46.388;8.116;2024-01-06T00:05:17;1.80;99.90
20242;DHT22;10279;46.388;8.116;2024-01-06T00:07:44;1.80;99.90
20242;DHT22;10279;46.388;8.116;2024-01-06T00:10:12;1.90;99.90
20242;DHT22;10279;46.388;8.116;2024-01-06T00:12:43;2.00;99.90
20242;DHT22;10279;46.388;8.116;2024-01-06T00:15:10;2.00;99.90
20242;DHT22;10279;46.388;8.116;2024-01-06T00:17:38;2.10;99.90
20242;DHT22;10279;46.388;8.116;2024-01-06T00:20:07;2.10;99.90
20242;DHT22;10279;46.388;8.116;2024-01-06T00:22:35;2.10;99.90
20242;DHT22;10279;46.388;8.116;2024-01-06T00:25:02;2.00;99.90
20242;DHT22;10279;46.388;8.116;2024-01-06T00:27:30;1.90;99.90
20242;DHT22;10279;46.388;8.116;2024-01-06T00:29:57;1.80;99.90
20242;DHT22;10279;46.388;8.116;2024-01-06T00:32:24;1.70;99.90
20242;DHT22;10279;46.388;8.116;2024-01-06T00:34:51;1.70;99.90
20242;DHT22;10279;46.388;8.116;2024-01-06T00:37:19;1.70;99.90
20242;DHT22;10279;46.388;8.116;2024-01-06T00:39:46;1.80;99.90
20242;DHT22;10279;46.388;8.116;2024-01-06T00:42:13;1.80;99.90
20242;DHT22;10279;46.388;8.116;2024-01-06T00:44:40;1.90;99.90
20242;DHT22;10279;46.388;8.116;2024-01-06T00:47:07;2.00;99.90
20242;DHT22;10279;46.388;8.116;2024-01-06T00:49:34;2.10;99.90
20242;DHT22;10279;46.388;8.116;2024-01-06T00:52:02;2.10;99.90
20242;DHT22;10279;46.388;8.116;2024-01-06T00:54:29;2.20;99.90
20242;DHT22;10279;46.388;8.116;2024-01-06T00:56:56;2.30;99.90
20242;DHT22;10279;46.388;8.116;2024-01-06T00:59:24;2.40;99.90
20242;DHT22;10279;46.388;8.116;2024-01-06T01:01:52;2.40;99.90
20242;DHT22;10279;46.388;8.116;2024-01-06T01:04:19;2.40;99.90
20242;DHT22;10279;46.388;8.116;2024-01-06T01:06:46;2.30;99.90
20242;DHT22;10279;46.388;8.116;2024-01-06T01:09:14;2.40;99.90
20242;DHT22;10279;46.388;8.116;2024-01-06T01:11:41;2.40;99.90
20242;DHT22;10279;46.388;8.116;2024-01-06T01:14:09;2.40;99.90
20242;DHT22;10279;46.388;8.116;2024-01-06T01:16:36;2.50;99.90
20242;DHT22;10279;46.388;8.116;2024-01-06T01:19:03;2.50;99.90
20242;DHT22;10279;46.388;8.116;2024-01-06T01:21:30;2.50;99.90
20242;DHT22;10279;46.388;8.116;2024-01-06T01:23:58;2.50;99.90
20242;DHT22;10279;46.388;8.116;2024-01-06T01:26:25;2.50;99.90
20242;DHT22;10279;46.388;8.116;2024-01-06T01:28:52;2.60;99.90
20242;DHT22;10279;46.388;8.116;2024-01-06T01:31:20;2.70;99.90
20242;DHT22;10279;46.388;8.116;2024-01-06T01:33:47;2.80;99.90
20242;DHT22;10279;46.388;8.116;2024-01-06T01:36:14;2.90;99.90
20242;DHT22;10279;46.388;8.116;2024-01-06T01:38:42;2.90;99.90
20242;DHT22;10279;46.388;8.116;2024-01-06T01:41:09;3.00;99.90
20242;DHT22;10279;46.388;8.116;2024-01-06T01:43:36;3.10;99.90
20242;DHT22;10279;46.388;8.116;2024-01-06T01:46:03;3.20;99.90
20242;DHT22;10279;46.388;8.116;2024-01-06T01:48:31;3.30;99.90
20242;DHT22;10279;46.388;8.116;2024-01-06T01:51:02;3.40;99.90
20242;DHT22;10279;46.388;8.116;2024-01-06T01:53:30;3.50;99.90
20242;DHT22;10279;46.388;8.116;2024-01-06T01:55:58;3.60;99.90
20242;DHT22;10279;46.388;8.116;2024-01-06T01:58:26;3.70;99.90
20242;DHT22;10279;46.388;8.116;2024-01-06T02:00:53;3.80;99.90
20242;DHT22;10279;46.388;8.116;2024-01-06T02:03:21;3.80;99.90
20242;DHT22;10279;46.388;8.116;2024-01-06T02:05:49;3.80;99.90
20242;DHT22;10279;46.388;8.116;2024-01-06T02:08:16;3.90;99.90
20242;DHT22;10279;46.388;8.116;2024-01-06T02:10:43;4.00;99.90
20242;DHT22;10279;46.388;8.116;2024-01-06T02:13:11;4.00;99.90
20242;DHT22;10279;46.388;8.116;2024-01-06T02:15:39;4.10;99.90
20242;DHT22;10279;46.388;8.116;2024-01-06T02:18:08;4.10;99.90
20242;DHT22;10279;46.388;8.116;2024-01-06T02:20:37;4.20;99.90
20242;DHT22;10279;46.388;8.116;2024-01-06T02:23:04;4.20;99.90
20242;DHT22;10279;46.388;8.116;2024-01-06T02:25:31;4.20;99.90
20242;DHT22;10279;46.388;8.116;2024-01-06T02:27:59;4.20;99.90
20242;DHT22;10279;46.388;8.116;2024-01-06T02:30:26;4.20;99.90
20242;DHT22;10279;46.388;8.116;2024-01-06T02:32:53;4.30;99.90
20242;DHT22;10279;46.388;8.116;2024-01-06T02:35:20;4.40;99.90
20242;DHT22;10279;46.388;8.116;2024-01-06T02:37:48;4.40;99.90
20242;DHT22;10279;46.388;8.116;2024-01-06T02:40:15;4.40;99.90
20242;DHT22;10279;46.388;8.116;2024-01-06T02:42:42;4.30;99.90
20242;DHT22;10279;46.388;8.116;2024-01-06T02:45:09;4.20;99.90
20242;DHT22;10279;46.388;8.116;2024-01-06T02:47:37;3.90;99.90
20242;DHT22;10279;46.388;8.116;2024-01-06T02:50:05;3.80;99.90
20242;DHT22;10279;46.388;8.116;2024-01-06T02:52:32;3.70;99.90
20242;DHT22;10279;46.388;8.116;2024-01-06T02:55:00;3.70;99.90
20242;DHT22;10279;46.388;8.116;2024-01-06T02:57:30;3.70;99.90
20242;DHT22;10279;46.388;8.116;2024-01-06T02:59:57;3.70;99.90
20242;DHT22;10279;46.388;8.116;2024-01-06T03:02:25;3.80;99.90
20242;DHT22;10279;46.388;8.116;2024-01-06T03:04:52;3.90;99.90
20242;DHT22;10279;46.388;8.116;2024-01-06T03:07:19;3.90;99.90
20242;DHT22;10279;46.388;8.116;2024-01-06T03:09:46;3.90;99.90
20242;DHT22;10279;46.388;8.116;2024-01-06T03:12:14;4.00;99.90
20242;DHT22;10279;46.388;8.116;2024-01-06T03:14:41;4.00;99.90
20242;DHT22;10279;46.388;8.116;2024-01-06T03:17:08;4.10;99.90
20242;DHT22;10279;46.388;8.116;2024-01-06T03:19:38;4.20;99.90
20242;DHT22;10279;46.388;8.116;2024-01-06T03:22:05;4.20;99.90
20242;DHT22;10279;46.388;8.116;2024-01-06T03:24:32;4.20;99.90
20242;DHT22;10279;46.388;8.116;2024-01-06T03:27:00;4.30;99.90
20242;DHT22;10279;46.388;8.116;2024-01-06T03:29:27;4.30;99.90
20242;DHT22;10279;46.388;8.116;2024-01-06T03:31:54;4.30;99.90
20242;DHT22;10279;46.388;8.116;2024-01-06T03:34:21;4.30;99.90
20242;DHT22;10279;46.388;8.116;2024-01-06T03:36:48;4.30;99.90
20242;DHT22;10279;46.388;8.116;2024-01-06T03:39:16;4.40;99.90
20242;DHT22;10279;46.388;8.116;2024-01-06T03:41:43;4.40;99.90
20242;DHT22;10279;46.388;8.116;2024-01-06T03:44:10;4.40;99.90
20242;DHT22;10279;46.388;8.116;2024-01-06T03:46:37;4.40;99.90
20242;DHT22;10279;46.388;8.116;2024-01-06T03:49:04;4.40;99.90
20242;DHT22;10279;46.388;8.116;2024-01-06T03:51:32;4.40;99.90
20242;DHT22;10279;46.388;8.116;2024-01-06T03:53:59;4.40;99.90
20242;DHT22;10279;46.388;8.116;2024-01-06T03:56:26;4.40;99.90
20242;DHT22;10279;46.388;8.116;2024-01-06T03:58:53;4.40;99.90
20242;DHT22;10279;46.388;8.116;2024-01-06T04:01:20;4.50;99.90
20242;DHT22;10279;46.388;8.116;2024-01-06T04:03:48;4.50;99.90
20242;DHT22;10279;46.388;8.116;2024-01-06T04:06:16;4.40;99.90
20242;DHT22;10279;46.388;8.116;2024-01-06T04:08:43;4.40;99.90
20242;DHT22;10279;46.388;8.116;2024-01-06T04:11:10;4.40;99.90
20242;DHT22;10279;46.388;8.116;2024-01-06T04:13:37;4.40;99.90
20242;DHT22;10279;46.388;8.116;2024-01-06T04:16:04;4.40;99.90
20242;DHT22;10279;46.388;8.116;2024-01-06T04:18:32;4.40;99.90
20242;DHT22;10279;46.388;8.116;2024-01-06T04:20:59;4.40;99.90
20242;DHT22;10279;46.388;8.116;2024-01-06T04:23:26;4.50;99.90
20242;DHT22;10279;46.388;8.116;2024-01-06T04:25:54;4.40;99.90
20242;DHT22;10279;46.388;8.116;2024-01-06T04:28:21;4.50;99.90
20242;DHT22;10279;46.388;8.116;2024-01-06T04:30:48;4.50;99.90
20242;DHT22;10279;46.388;8.116;2024-01-06T04:33:15;4.50;99.90
20242;DHT22;10279;46.388;8.116;2024-01-06T04:35:43;4.50;99.90
20242;DHT22;10279;46.388;8.116;2024-01-06T04:38:10;4.50;99.90
20242;DHT22;10279;46.388;8.116;2024-01-06T04:40:37;4.50;99.90
20242;DHT22;10279;46.388;8.116;2024-01-06T04:43:04;4.50;99.90
20242;DHT22;10279;46.388;8.116;2024-01-06T04:45:31;4.50;99.90
20242;DHT22;10279;46.388;8.116;2024-01-06T04:47:59;4.50;99.90
20242;DHT22;10279;46.388;8.116;2024-01-06T04:50:26;4.50;99.90
20242;DHT22;10279;46.388;8.116;2024-01-06T04:52:53;4.50;99.90
20242;DHT22;10279;46.388;8.116;2024-01-06T04:55:20;4.50;99.90
20242;DHT22;10279;46.388;8.116;2024-01-06T04:57:49;4.50;99.90
20242;DHT22;10279;46.388;8.116;2024-01-06T05:00:17;4.50;99.90
20242;DHT22;10279;46.388;8.116;2024-01-06T05:02:44;4.50;99.90
20242;DHT22;10279;46.388;8.116;2024-01-06T05:05:11;4.50;99.90
20242;DHT22;10279;46.388;8.116;2024-01-06T05:07:39;4.50;99.90
20242;DHT22;10279;46.388;8.116;2024-01-06T05:10:07;4.60;99.90
20242;DHT22;10279;46.388;8.116;2024-01-06T05:12:34;4.50;99.90
20242;DHT22;10279;46.388;8.116;2024-01-06T05:15:02;4.50;99.90
20242;DHT22;10279;46.388;8.116;2024-01-06T05:17:29;4.50;99.90
20242;DHT22;10279;46.388;8.116;2024-01-06T05:19:56;4.60;99.90
20242;DHT22;10279;46.388;8.116;2024-01-06T05:22:23;4.50;99.90
20242;DHT22;10279;46.388;8.116;2024-01-06T05:24:50;4.50;99.90
20242;DHT22;10279;46.388;8.116;2024-01-06T05:27:20;4.50;99.90
20242;DHT22;10279;46.388;8.116;2024-01-06T05:29:47;4.50;99.90
20242;DHT22;10279;46.388;8.116;2024-01-06T05:32:16;4.50;99.90
20242;DHT22;10279;46.388;8.116;2024-01-06T05:34:45;4.50;99.90
20242;DHT22;10279;46.388;8.116;2024-01-06T05:37:12;4.60;99.90
20242;DHT22;10279;46.388;8.116;2024-01-06T05:39:40;4.60;99.90
20242;DHT22;10279;46.388;8.116;2024-01-06T05:42:09;4.50;99.90
20242;DHT22;10279;46.388;8.116;2024-01-06T05:44:40;4.50;99.90
20242;DHT22;10279;46.388;8.116;2024-01-06T05:47:08;4.50;99.90
20242;DHT22;10279;46.388;8.116;2024-01-06T05:49:35;4.50;99.90
20242;DHT22;10279;46.388;8.116;2024-01-06T05:52:03;4.50;99.90
20242;DHT22;10279;46.388;8.116;2024-01-06T05:54:30;4.50;99.90
20242;DHT22;10279;46.388;8.116;2024-01-06T05:56:58;4.50;99.90
20242;DHT22;10279;46.388;8.116;2024-01-06T05:59:25;4.60;99.90
20242;DHT22;10279;46.388;8.116;2024-01-06T06:01:52;4.60;99.90
20242;DHT22;10279;46.388;8.116;2024-01-06T06:04:19;4.50;99.90
20242;DHT22;10279;46.388;8.116;2024-01-06T06:06:47;4.50;99.90
20242;DHT22;10279;46.388;8.116;2024-01-06T06:09:14;4.50;99.90
20242;DHT22;10279;46.388;8.116;2024-01-06T06:11:42;4.50;99.90
20242;DHT22;10279;46.388;8.116;2024-01-06T06:14:10;4.50;99.90
20242;DHT22;10279;46.388;8.116;2024-01-06T06:16:37;4.60;99.90
20242;DHT22;10279;46.388;8.116;2024-01-06T06:19:04;4.60;99.90
20242;DHT22;10279;46.388;8.116;2024-01-06T06:21:31;4.50;99.90
20242;DHT22;10279;46.388;8.116;2024-01-06T06:23:58;4.50;99.90
20242;DHT22;10279;46.388;8.116;2024-01-06T06:26:28;4.50;99.90
20242;DHT22;10279;46.388;8.116;2024-01-06T06:28:55;4.50;99.90
20242;DHT22;10279;46.388;8.116;2024-01-06T06:31:22;4.40;99.90
20242;DHT22;10279;46.388;8.116;2024-01-06T06:33:49;4.50;99.90
20242;DHT22;10279;46.388;8.116;2024-01-06T06:36:17;4.50;99.90
20242;DHT22;10279;46.388;8.116;2024-01-06T06:38:44;4.50;99.90
20242;DHT22;10279;46.388;8.116;2024-01-06T06:41:11;4.50;99.90
20242;DHT22;10279;46.388;8.116;2024-01-06T06:43:38;4.50;99.90
20242;DHT22;10279;46.388;8.116;2024-01-06T06:46:05;4.50;99.90
20242;DHT22;10279;46.388;8.116;2024-01-06T06:48:33;4.50;99.90
20242;DHT22;10279;46.388;8.116;2024-01-06T06:51:03;4.60;99.90
20242;DHT22;10279;46.388;8.116;2024-01-06T06:53:30;4.60;99.90
20242;DHT22;10279;46.388;8.116;2024-01-06T06:55:57;4.60;99.90
20242;DHT22;10279;46.388;8.116;2024-01-06T06:58:24;4.60;99.90
20242;DHT22;10279;46.388;8.116;2024-01-06T07:00:52;4.50;99.90
20242;DHT22;10279;46.388;8.116;2024-01-06T07:03:21;4.50;99.90
20242;DHT22;10279;46.388;8.116;2024-01-06T07:05:48;4.50;99.90
20242;DHT22;10279;46.388;8.116;2024-01-06T07:08:16;4.50;99.90
20242;DHT22;10279;46.388;8.116;2024-01-06T07:10:43;4.50;99.90
20242;DHT22;10279;46.388;8.116;2024-01-06T07:13:10;4.60;99.90
20242;DHT22;10279;46.388;8.116;2024-01-06T07:15:37;4.50;99.90
20242;DHT22;10279;46.388;8.116;2024-01-06T07:18:04;4.50;99.90
20242;DHT22;10279;46.388;8.116;2024-01-06T07:20:32;4.50;99.90
20242;DHT22;10279;46.388;8.116;2024-01-06T07:22:59;4.50;99.90
20242;DHT22;10279;46.388;8.116;2024-01-06T07:25:26;4.60;99.90
20242;DHT22;10279;46.388;8.116;2024-01-06T07:27:53;4.60;99.90
20242;DHT22;10279;46.388;8.116;2024-01-06T07:30:21;4.60;99.90
20242;DHT22;10279;46.388;8.116;2024-01-06T07:32:49;4.60;99.90
20242;DHT22;10279;46.388;8.116;2024-01-06T07:35:17;4.60;99.90
20242;DHT22;10279;46.388;8.116;2024-01-06T07:37:44;4.60;99.90
20242;DHT22;10279;46.388;8.116;2024-01-06T07:40:12;4.60;99.90
20242;DHT22;10279;46.388;8.116;2024-01-06T07:42:44;4.60;99.90
20242;DHT22;10279;46.388;8.116;2024-01-06T07:45:11;4.50;99.90
20242;DHT22;10279;46.388;8.116;2024-01-06T07:47:40;4.50;99.90
20242;DHT22;10279;46.388;8.116;2024-01-06T07:50:08;4.60;99.90
20242;DHT22;10279;46.388;8.116;2024-01-06T07:52:35;4.60;99.90
20242;DHT22;10279;46.388;8.116;2024-01-06T07:55:03;4.60;99.90
20242;DHT22;10279;46.388;8.116;2024-01-06T07:57:30;4.60;99.90
20242;DHT22;10279;46.388;8.116;2024-01-06T07:59:57;4.60;99.90
20242;DHT22;10279;46.388;8.116;2024-01-06T08:02:27;4.60;99.90
20242;DHT22;10279;46.388;8.116;2024-01-06T08:04:55;4.60;99.90
20242;DHT22;10279;46.388;8.116;2024-01-06T08:07:23;4.60;99.90
20242;DHT22;10279;46.388;8.116;2024-01-06T08:09:50;4.60;99.90
20242;DHT22;10279;46.388;8.116;2024-01-06T08:12:17;4.60;99.90
20242;DHT22;10279;46.388;8.116;2024-01-06T08:14:44;4.60;99.90
20242;DHT22;10279;46.388;8.116;2024-01-06T08:17:11;4.60;99.90
20242;DHT22;10279;46.388;8.116;2024-01-06T08:19:42;4.60;99.90
20242;DHT22;10279;46.388;8.116;2024-01-06T08:22:09;4.60;99.90
20242;DHT22;10279;46.388;8.116;2024-01-06T08:24:36;4.60;99.90
20242;DHT22;10279;46.388;8.116;2024-01-06T08:27:04;4.70;99.90
20242;DHT22;10279;46.388;8.116;2024-01-06T08:29:31;4.70;99.90
20242;DHT22;10279;46.388;8.116;2024-01-06T08:31:59;4.70;99.90
20242;DHT22;10279;46.388;8.116;2024-01-06T08:34:26;4.80;99.90
20242;DHT22;10279;46.388;8.116;2024-01-06T08:36:59;4.80;99.90
20242;DHT22;10279;46.388;8.116;2024-01-06T08:39:26;4.80;99.90
20242;DHT22;10279;46.388;8.116;2024-01-06T08:41:53;4.80;99.90
20242;DHT22;10279;46.388;8.116;2024-01-06T08:44:24;4.80;99.90
20242;DHT22;10279;46.388;8.116;2024-01-06T08:46:51;4.80;99.90
20242;DHT22;10279;46.388;8.116;2024-01-06T08:49:18;4.70;99.90
20242;DHT22;10279;46.388;8.116;2024-01-06T08:51:46;4.70;99.90
20242;DHT22;10279;46.388;8.116;2024-01-06T08:54:13;4.80;99.90
20242;DHT22;10279;46.388;8.116;2024-01-06T08:56:40;4.70;99.90
20242;DHT22;10279;46.388;8.116;2024-01-06T08:59:07;4.70;99.90
20242;DHT22;10279;46.388;8.116;2024-01-06T09:01:34;4.60;99.90
20242;DHT22;10279;46.388;8.116;2024-01-06T09:04:03;4.60;99.90
20242;DHT22;10279;46.388;8.116;2024-01-06T09:06:30;4.60;99.90
20242;DHT22;10279;46.388;8.116;2024-01-06T09:08:58;4.60;99.90
20242;DHT22;10279;46.388;8.116;2024-01-06T09:11:25;4.60;99.90
20242;DHT22;10279;46.388;8.116;2024-01-06T09:13:52;4.60;99.90
20242;DHT22;10279;46.388;8.116;2024-01-06T09:16:20;4.50;99.90
20242;DHT22;10279;46.388;8.116;2024-01-06T09:18:47;4.50;99.90
20242;DHT22;10279;46.388;8.116;2024-01-06T09:21:15;4.40;99.90
20242;DHT22;10279;46.388;8.116;2024-01-06T09:23:44;4.30;99.90
20242;DHT22;10279;46.388;8.116;2024-01-06T09:26:11;4.10;99.90
20242;DHT22;10279;46.388;8.116;2024-01-06T09:28:39;4.10;99.90
20242;DHT22;10279;46.388;8.116;2024-01-06T09:31:06;4.00;99.90
20242;DHT22;10279;46.388;8.116;2024-01-06T09:33:33;3.90;99.90
20242;DHT22;10279;46.388;8.116;2024-01-06T09:36:01;3.80;99.90
20242;DHT22;10279;46.388;8.116;2024-01-06T09:38:29;3.80;99.90
20242;DHT22;10279;46.388;8.116;2024-01-06T09:40:56;3.90;99.90
20242;DHT22;10279;46.388;8.116;2024-01-06T09:43:24;4.00;99.90
20242;DHT22;10279;46.388;8.116;2024-01-06T09:46:05;4.00;99.90
20242;DHT22;10279;46.388;8.116;2024-01-06T09:48:38;4.00;99.90
20242;DHT22;10279;46.388;8.116;2024-01-06T09:51:10;3.90;99.90
20242;DHT22;10279;46.388;8.116;2024-01-06T09:53:43;3.80;99.90
20242;DHT22;10279;46.388;8.116;2024-01-06T09:56:16;3.70;99.90
20242;DHT22;10279;46.388;8.116;2024-01-06T09:58:44;3.60;99.90
20242;DHT22;10279;46.388;8.116;2024-01-06T10:01:12;3.60;99.90
20242;DHT22;10279;46.388;8.116;2024-01-06T10:03:41;3.70;99.90
20242;DHT22;10279;46.388;8.116;2024-01-06T10:06:10;3.80;99.90
20242;DHT22;10279;46.388;8.116;2024-01-06T10:08:37;3.90;99.90
20242;DHT22;10279;46.388;8.116;2024-01-06T10:11:07;3.80;99.90
20242;DHT22;10279;46.388;8.116;2024-01-06T10:13:36;3.50;99.90
20242;DHT22;10279;46.388;8.116;2024-01-06T10:16:06;3.30;99.90
20242;DHT22;10279;46.388;8.116;2024-01-06T10:18:34;3.20;99.90
20242;DHT22;10279;46.388;8.116;2024-01-06T10:21:06;3.20;99.90
20242;DHT22;10279;46.388;8.116;2024-01-06T10:23:33;3.20;99.90
20242;DHT22;10279;46.388;8.116;2024-01-06T10:26:01;3.20;99.90
20242;DHT22;10279;46.388;8.116;2024-01-06T10:28:31;3.10;99.90
20242;DHT22;10279;46.388;8.116;2024-01-06T10:30:59;3.20;99.90
20242;DHT22;10279;46.388;8.116;2024-01-06T10:33:27;3.20;99.90
20242;DHT22;10279;46.388;8.116;2024-01-06T10:35:55;3.30;99.90
20242;DHT22;10279;46.388;8.116;2024-01-06T10:38:26;3.20;99.90
20242;DHT22;10279;46.388;8.116;2024-01-06T10:43:27;3.20;99.90
20242;DHT22;10279;46.388;8.116;2024-01-06T10:46:00;3.10;99.90
20242;DHT22;10279;46.388;8.116;2024-01-06T10:48:32;3.10;99.90
20242;DHT22;10279;46.388;8.116;2024-01-06T10:51:05;3.20;99.90
20242;DHT22;10279;46.388;8.116;2024-01-06T10:53:35;3.20;99.90
20242;DHT22;10279;46.388;8.116;2024-01-06T10:56:07;3.20;99.90
20242;DHT22;10279;46.388;8.116;2024-01-06T10:58:36;3.30;99.90
20242;DHT22;10279;46.388;8.116;2024-01-06T11:01:10;3.40;99.90
20242;DHT22;10279;46.388;8.116;2024-01-06T11:03:38;3.60;99.90
20242;DHT22;10279;46.388;8.116;2024-01-06T11:06:06;3.70;99.90
20242;DHT22;10279;46.388;8.116;2024-01-06T11:08:54;3.80;99.90
20242;DHT22;10279;46.388;8.116;2024-01-06T11:11:24;4.00;99.90
20242;DHT22;10279;46.388;8.116;2024-01-06T11:13:52;3.90;99.90
20242;DHT22;10279;46.388;8.116;2024-01-06T11:16:35;3.90;99.90
20242;DHT22;10279;46.388;8.116;2024-01-06T11:22:33;3.80;99.90
20242;DHT22;10279;46.388;8.116;2024-01-06T11:25:07;3.80;99.90
20242;DHT22;10279;46.388;8.116;2024-01-06T11:27:36;3.60;99.90
20242;DHT22;10279;46.388;8.116;2024-01-06T11:30:04;3.50;99.90
20242;DHT22;10279;46.388;8.116;2024-01-06T11:32:36;3.50;99.90
20242;DHT22;10279;46.388;8.116;2024-01-06T11:35:12;3.50;99.90
20242;DHT22;10279;46.388;8.116;2024-01-06T11:40:33;3.60;99.90
20242;DHT22;10279;46.388;8.116;2024-01-06T11:43:09;3.60;99.90
20242;DHT22;10279;46.388;8.116;2024-01-06T11:45:38;3.60;99.90
20242;DHT22;10279;46.388;8.116;2024-01-06T11:48:10;3.60;99.90
20242;DHT22;10279;46.388;8.116;2024-01-06T11:50:40;3.50;99.90
20242;DHT22;10279;46.388;8.116;2024-01-06T11:53:09;3.40;99.90
20242;DHT22;10279;46.388;8.116;2024-01-06T11:55:39;3.40;99.90
20242;DHT22;10279;46.388;8.116;2024-01-06T11:58:06;3.40;99.90
20242;DHT22;10279;46.388;8.116;2024-01-06T12:00:34;3.30;99.90
20242;DHT22;10279;46.388;8.116;2024-01-06T12:03:07;3.30;99.90
20242;DHT22;10279;46.388;8.116;2024-01-06T12:05:35;3.20;99.90
20242;DHT22;10279;46.388;8.116;2024-01-06T12:08:04;3.30;99.90
20242;DHT22;10279;46.388;8.116;2024-01-06T12:10:34;3.40;99.90
20242;DHT22;10279;46.388;8.116;2024-01-06T12:13:06;3.70;99.90
20242;DHT22;10279;46.388;8.116;2024-01-06T12:15:38;3.70;99.90
20242;DHT22;10279;46.388;8.116;2024-01-06T12:18:07;3.90;99.90
20242;DHT22;10279;46.388;8.116;2024-01-06T12:20:34;4.10;99.90
20242;DHT22;10279;46.388;8.116;2024-01-06T12:23:02;3.90;99.90
20242;DHT22;10279;46.388;8.116;2024-01-06T12:25:34;3.70;99.90
20242;DHT22;10279;46.388;8.116;2024-01-06T12:28:06;3.60;99.90
20242;DHT22;10279;46.388;8.116;2024-01-06T12:30:35;3.50;99.90
20242;DHT22;10279;46.388;8.116;2024-01-06T12:33:03;3.50;99.90
20242;DHT22;10279;46.388;8.116;2024-01-06T12:35:31;3.40;99.90
20242;DHT22;10279;46.388;8.116;2024-01-06T12:37:58;3.40;99.90
20242;DHT22;10279;46.388;8.116;2024-01-06T12:40:27;3.50;99.90
20242;DHT22;10279;46.388;8.116;2024-01-06T12:42:55;3.60;99.90
20242;DHT22;10279;46.388;8.116;2024-01-06T12:45:22;3.60;99.90
20242;DHT22;10279;46.388;8.116;2024-01-06T12:47:49;3.70;99.90
20242;DHT22;10279;46.388;8.116;2024-01-06T12:50:16;3.70;99.90
20242;DHT22;10279;46.388;8.116;2024-01-06T12:52:43;3.60;99.90
20242;DHT22;10279;46.388;8.116;2024-01-06T12:55:12;3.70;99.90
20242;DHT22;10279;46.388;8.116;2024-01-06T12:57:41;3.50;99.90
20242;DHT22;10279;46.388;8.116;2024-01-06T13:00:09;3.50;99.90
20242;DHT22;10279;46.388;8.116;2024-01-06T13:02:39;3.50;99.90
20242;DHT22;10279;46.388;8.116;2024-01-06T13:05:06;3.50;99.90
20242;DHT22;10279;46.388;8.116;2024-01-06T13:07:34;3.60;99.90
20242;DHT22;10279;46.388;8.116;2024-01-06T13:10:02;3.50;99.90
20242;DHT22;10279;46.388;8.116;2024-01-06T13:12:29;3.60;99.90
20242;DHT22;10279;46.388;8.116;2024-01-06T13:14:57;3.50;99.90
20242;DHT22;10279;46.388;8.116;2024-01-06T13:17:26;3.60;99.90
20242;DHT22;10279;46.388;8.116;2024-01-06T13:19:53;3.50;99.90
20242;DHT22;10279;46.388;8.116;2024-01-06T13:22:20;3.50;99.90
20242;DHT22;10279;46.388;8.116;2024-01-06T13:24:49;3.50;99.90
20242;DHT22;10279;46.388;8.116;2024-01-06T13:27:20;3.50;99.90
20242;DHT22;10279;46.388;8.116;2024-01-06T13:29:47;3.40;99.90
20242;DHT22;10279;46.388;8.116;2024-01-06T13:32:14;3.50;99.90
20242;DHT22;10279;46.388;8.116;2024-01-06T13:34:42;3.50;99.90
20242;DHT22;10279;46.388;8.116;2024-01-06T13:37:10;3.50;99.90
20242;DHT22;10279;46.388;8.116;2024-01-06T13:39:37;3.50;99.90
20242;DHT22;10279;46.388;8.116;2024-01-06T13:42:05;3.60;99.90
20242;DHT22;10279;46.388;8.116;2024-01-06T13:44:32;3.70;99.90
20242;DHT22;10279;46.388;8.116;2024-01-06T13:47:00;3.70;99.90
20242;DHT22;10279;46.388;8.116;2024-01-06T13:49:27;3.90;99.90
20242;DHT22;10279;46.388;8.116;2024-01-06T13:51:55;4.00;99.90
20242;DHT22;10279;46.388;8.116;2024-01-06T13:54:23;4.10;99.90
20242;DHT22;10279;46.388;8.116;2024-01-06T13:56:50;4.30;99.90
20242;DHT22;10279;46.388;8.116;2024-01-06T13:59:19;4.40;99.90
20242;DHT22;10279;46.388;8.116;2024-01-06T14:01:46;4.50;99.90
20242;DHT22;10279;46.388;8.116;2024-01-06T14:04:14;4.50;99.90
20242;DHT22;10279;46.388;8.116;2024-01-06T14:06:41;4.40;99.90
20242;DHT22;10279;46.388;8.116;2024-01-06T14:09:09;4.40;99.90
20242;DHT22;10279;46.388;8.116;2024-01-06T14:11:36;4.40;99.90
20242;DHT22;10279;46.388;8.116;2024-01-06T14:14:03;4.40;99.90
20242;DHT22;10279;46.388;8.116;2024-01-06T14:16:32;4.40;99.90
20242;DHT22;10279;46.388;8.116;2024-01-06T14:18:59;4.50;99.90
20242;DHT22;10279;46.388;8.116;2024-01-06T14:21:26;4.50;99.90
20242;DHT22;10279;46.388;8.116;2024-01-06T14:23:55;4.60;99.90
20242;DHT22;10279;46.388;8.116;2024-01-06T14:26:22;4.60;99.90
20242;DHT22;10279;46.388;8.116;2024-01-06T14:28:50;4.50;99.90
20242;DHT22;10279;46.388;8.116;2024-01-06T14:31:18;4.30;99.90
20242;DHT22;10279;46.388;8.116;2024-01-06T14:33:45;4.30;99.90
20242;DHT22;10279;46.388;8.116;2024-01-06T14:36:13;4.10;99.90
20242;DHT22;10279;46.388;8.116;2024-01-06T14:38:40;4.10;99.90
20242;DHT22;10279;46.388;8.116;2024-01-06T14:41:07;4.00;99.90
20242;DHT22;10279;46.388;8.116;2024-01-06T14:43:34;4.00;99.90
20242;DHT22;10279;46.388;8.116;2024-01-06T14:46:01;3.90;99.90
20242;DHT22;10279;46.388;8.116;2024-01-06T14:48:29;3.90;99.90
20242;DHT22;10279;46.388;8.116;2024-01-06T14:50:57;4.00;99.90
20242;DHT22;10279;46.388;8.116;2024-01-06T14:53:24;4.00;99.90
20242;DHT22;10279;46.388;8.116;2024-01-06T14:55:51;4.00;99.90
20242;DHT22;10279;46.388;8.116;2024-01-06T14:58:18;4.00;99.90
20242;DHT22;10279;46.388;8.116;2024-01-06T15:00:45;3.90;99.90
20242;DHT22;10279;46.388;8.116;2024-01-06T15:03:12;3.80;99.90
20242;DHT22;10279;46.388;8.116;2024-01-06T15:05:39;3.80;99.90
20242;DHT22;10279;46.388;8.116;2024-01-06T15:08:06;3.70;99.90
20242;DHT22;10279;46.388;8.116;2024-01-06T15:10:34;3.70;99.90
20242;DHT22;10279;46.388;8.116;2024-01-06T15:13:02;3.60;99.90
20242;DHT22;10279;46.388;8.116;2024-01-06T15:15:30;3.50;99.90
20242;DHT22;10279;46.388;8.116;2024-01-06T15:17:57;3.40;99.90
20242;DHT22;10279;46.388;8.116;2024-01-06T15:20:25;3.40;99.90
20242;DHT22;10279;46.388;8.116;2024-01-06T15:22:52;3.30;99.90
20242;DHT22;10279;46.388;8.116;2024-01-06T15:25:19;3.20;99.90
20242;DHT22;10279;46.388;8.116;2024-01-06T15:27:46;3.20;99.90
20242;DHT22;10279;46.388;8.116;2024-01-06T15:30:14;3.30;99.90
20242;DHT22;10279;46.388;8.116;2024-01-06T15:32:44;3.40;99.90
20242;DHT22;10279;46.388;8.116;2024-01-06T15:35:11;3.40;99.90
20242;DHT22;10279;46.388;8.116;2024-01-06T15:37:38;3.50;99.90
20242;DHT22;10279;46.388;8.116;2024-01-06T15:40:07;3.40;99.90
20242;DHT22;10279;46.388;8.116;2024-01-06T15:42:36;3.30;99.90
20242;DHT22;10279;46.388;8.116;2024-01-06T15:45:04;3.20;99.90
20242;DHT22;10279;46.388;8.116;2024-01-06T15:47:32;3.10;99.90
20242;DHT22;10279;46.388;8.116;2024-01-06T15:50:00;3.10;99.90
20242;DHT22;10279;46.388;8.116;2024-01-06T15:52:27;3.00;99.90
20242;DHT22;10279;46.388;8.116;2024-01-06T15:54:55;3.00;99.90
20242;DHT22;10279;46.388;8.116;2024-01-06T15:57:23;3.10;99.90